Terminal Aerodrome Forecast
Issued by NWS

Home | Current Version | Previous Version | Text Only | Print | Product List | Glossary On
Versions: 1 2 3 4 5 6 7 8 9 10 11 12
000
FTUS45 KABQ 192300
TAFFMN
TAF
KFMN 192328Z 2000/2024 24010KT P6SM SKC
     FM200800 06005KT P6SM SKC
     FM201800 18010KT P6SM SCT100=

USA.gov is the U.S. government's official web portal to all federal, state and local government web resources and services.